createdAt,value
2022-10-06T00:00:04.628Z,97835.78
2022-10-06T00:02:34.454Z,97830.59
2022-10-06T00:05:01.128Z,97831.19
2022-10-06T00:07:27.632Z,97868.75
2022-10-06T00:09:54.195Z,97830.88
2022-10-06T00:12:20.787Z,97851.06
2022-10-06T00:14:47.288Z,97838.97
2022-10-06T00:17:14.209Z,97838.97
2022-10-06T00:19:40.746Z,97851.06
2022-10-06T00:22:07.351Z,97832.53
2022-10-06T00:24:33.922Z,97837.84
2022-10-06T00:27:00.847Z,97845.78
2022-10-06T00:29:27.496Z,97854.81
2022-10-06T00:31:54.126Z,97854.94
2022-10-06T00:34:20.925Z,97865.00
2022-10-06T00:36:47.578Z,97845.09
2022-10-06T00:39:14.254Z,97841.72
2022-10-06T00:41:40.883Z,97829.81
2022-10-06T00:44:07.518Z,97847.25
2022-10-06T00:46:40.614Z,97838.84
2022-10-06T00:49:08.900Z,97843.59
2022-10-06T00:51:36.457Z,97833.13
2022-10-06T00:54:03.013Z,97833.63
2022-10-06T00:56:29.580Z,97836.63
2022-10-06T00:58:56.166Z,97836.63
2022-10-06T01:01:23.100Z,97860.44
2022-10-06T01:03:58.642Z,97840.09
2022-10-06T01:06:25.132Z,97846.19
2022-10-06T01:08:52.163Z,97869.47
2022-10-06T01:11:19.653Z,97842.47
2022-10-06T01:13:46.322Z,97845.06
2022-10-06T01:16:17.255Z,97876.03
2022-10-06T01:18:44.377Z,97865.53
2022-10-06T01:21:25.799Z,97857.38
2022-10-06T01:23:52.449Z,97852.94
2022-10-06T01:26:19.500Z,97868.53
2022-10-06T01:28:46.793Z,97858.06
2022-10-06T01:31:13.506Z,97855.63
2022-10-06T01:33:40.225Z,97869.50
2022-10-06T01:36:07.255Z,97857.97
2022-10-06T01:38:33.871Z,97882.06
2022-10-06T01:41:00.781Z,97865.25
2022-10-06T01:43:27.791Z,97858.53
2022-10-06T01:45:57.757Z,97871.63
2022-10-06T01:51:52.672Z,97899.38
2022-10-06T01:54:19.319Z,97879.38
2022-10-06T01:56:45.916Z,97887.09
2022-10-06T01:59:12.509Z,97874.19
2022-10-06T02:01:39.126Z,97888.00
2022-10-06T02:04:05.840Z,97880.69
2022-10-06T02:06:32.499Z,97881.75
2022-10-06T02:09:00.338Z,97872.34
2022-10-06T02:11:27.126Z,97882.56
2022-10-06T02:13:53.737Z,97883.94
2022-10-06T02:16:20.548Z,97887.31
2022-10-06T02:18:47.206Z,97876.28
2022-10-06T02:21:20.427Z,97868.34
2022-10-06T02:23:47.102Z,97883.84
2022-10-06T02:26:13.775Z,97885.41
2022-10-06T02:28:40.371Z,97903.84
2022-10-06T02:31:08.644Z,97897.91
2022-10-06T02:33:35.675Z,97885.81
2022-10-06T02:36:02.807Z,97897.03
2022-10-06T02:38:29.985Z,97905.50
2022-10-06T02:40:57.036Z,97905.16
2022-10-06T02:43:23.641Z,97913.44
2022-10-06T02:45:54.573Z,97895.09
2022-10-06T02:48:21.378Z,97883.97
2022-10-06T02:50:56.606Z,97898.66
2022-10-06T02:53:23.380Z,97913.84
2022-10-06T02:55:49.887Z,97919.53
2022-10-06T02:58:16.571Z,97916.44
2022-10-06T03:00:43.060Z,97921.94
2022-10-06T03:03:09.770Z,97920.09
2022-10-06T03:05:37.025Z,97935.28
2022-10-06T03:08:03.716Z,97939.31
2022-10-06T03:10:30.412Z,97921.94
2022-10-06T03:12:57.058Z,97920.00
2022-10-06T03:15:23.588Z,97921.31
2022-10-06T03:17:50.205Z,97932.03
2022-10-06T03:20:16.737Z,97927.16
2022-10-06T03:22:43.338Z,97926.19
2022-10-06T03:25:10.077Z,97919.75
2022-10-06T03:27:36.703Z,97917.34
2022-10-06T03:30:04.014Z,97925.03
2022-10-06T03:32:30.604Z,97951.03
2022-10-06T03:34:57.269Z,97959.22
2022-10-06T03:37:24.239Z,97949.22
2022-10-06T03:39:50.803Z,97960.81
2022-10-06T03:42:17.346Z,97945.97
2022-10-06T03:44:43.878Z,97973.50
2022-10-06T03:47:16.117Z,97985.25
2022-10-06T03:49:43.700Z,97938.50
2022-10-06T03:52:10.232Z,97959.66
2022-10-06T03:54:36.995Z,97972.81
2022-10-06T03:57:03.624Z,97984.00
2022-10-06T03:59:30.236Z,97988.97
2022-10-06T04:01:56.761Z,97979.47
2022-10-06T04:04:23.379Z,97974.59
2022-10-06T04:06:49.941Z,97949.97
2022-10-06T04:09:16.495Z,97988.38
2022-10-06T04:11:43.760Z,97976.31
2022-10-06T04:14:11.557Z,97993.50
2022-10-06T04:16:39.801Z,98004.66
2022-10-06T04:19:07.737Z,98011.63
2022-10-06T04:21:34.896Z,97992.56
2022-10-06T04:24:01.439Z,98019.50
2022-10-06T04:26:29.905Z,98014.94
2022-10-06T04:28:56.433Z,98014.28
2022-10-06T04:31:27.948Z,98027.91
2022-10-06T04:33:56.046Z,98037.94
2022-10-06T04:36:24.427Z,98026.75
2022-10-06T04:38:54.574Z,98022.69
2022-10-06T04:41:21.280Z,98023.63
2022-10-06T04:43:48.215Z,98032.47
2022-10-06T04:46:40.874Z,98032.72
2022-10-06T04:49:01.915Z,98049.25
2022-10-06T04:51:28.546Z,98028.28
2022-10-06T04:53:55.165Z,98062.03
2022-10-06T04:56:29.166Z,98006.78
2022-10-06T04:58:56.079Z,98045.06
2022-10-06T05:01:26.211Z,98042.84
2022-10-06T05:03:54.230Z,98041.81
2022-10-06T05:06:23.165Z,98034.34
2022-10-06T05:08:55.110Z,98050.75
2022-10-06T05:11:25.670Z,98037.28
2022-10-06T05:13:54.648Z,98019.13
2022-10-06T05:16:22.844Z,98048.91
2022-10-06T05:18:49.564Z,98040.31
2022-10-06T05:21:17.807Z,98073.94
2022-10-06T05:23:44.475Z,98054.88
2022-10-06T05:26:12.347Z,98038.69
2022-10-06T05:28:39.064Z,98053.91
2022-10-06T05:31:12.675Z,98059.72
2022-10-06T05:33:39.443Z,98067.41
2022-10-06T05:36:07.734Z,98080.78
2022-10-06T05:38:34.277Z,98076.75
2022-10-06T05:41:04.848Z,98085.94
2022-10-06T05:43:31.892Z,98104.06
2022-10-06T05:46:00.294Z,98105.09
2022-10-06T05:48:28.148Z,98129.88
2022-10-06T05:51:05.790Z,98103.25
2022-10-06T05:53:33.466Z,98102.78
2022-10-06T05:56:09.901Z,98099.56
2022-10-06T05:58:37.997Z,98110.94
2022-10-06T06:01:11.742Z,98115.31
2022-10-06T06:03:39.255Z,98120.69
2022-10-06T06:06:24.784Z,98112.16
2022-10-06T06:08:57.238Z,98134.28
2022-10-06T06:11:24.709Z,98118.44
2022-10-06T06:13:58.327Z,98131.84
2022-10-06T06:16:25.210Z,98122.75
2022-10-06T06:18:51.844Z,98145.44
2022-10-06T06:21:18.718Z,98138.84
2022-10-06T06:23:46.166Z,98148.28
2022-10-06T06:26:14.408Z,98146.16
2022-10-06T06:28:41.238Z,98153.25
2022-10-06T06:31:16.199Z,98158.63
2022-10-06T06:33:45.925Z,98154.66
2022-10-06T06:36:28.823Z,98155.31
2022-10-06T06:38:56.937Z,98167.34
2022-10-06T06:41:28.428Z,98161.09
2022-10-06T06:43:55.432Z,98177.91
2022-10-06T06:46:23.748Z,98178.47
2022-10-06T06:48:51.679Z,98180.03
2022-10-06T06:51:18.333Z,98190.94
2022-10-06T06:53:45.749Z,98177.09
2022-10-06T06:56:12.542Z,98170.25
2022-10-06T06:58:39.234Z,98187.25
2022-10-06T07:01:10.649Z,98174.44
2022-10-06T07:03:57.676Z,98192.81
2022-10-06T07:06:27.835Z,98194.34
2022-10-06T07:08:54.892Z,98190.75
2022-10-06T07:11:32.678Z,98170.16
2022-10-06T07:14:00.821Z,98196.19
2022-10-06T07:16:28.034Z,98226.50
2022-10-06T07:18:54.556Z,98224.22
2022-10-06T07:21:21.172Z,98192.69
2022-10-06T07:23:48.434Z,98230.72
2022-10-06T07:26:15.086Z,98211.19
2022-10-06T07:28:41.693Z,98222.06
2022-10-06T07:31:08.432Z,98223.25
2022-10-06T07:33:35.032Z,98237.06
2022-10-06T07:36:02.602Z,98205.41
2022-10-06T07:38:29.185Z,98218.06
2022-10-06T07:41:17.868Z,98234.25
2022-10-06T07:43:43.196Z,98235.97
2022-10-06T07:46:12.082Z,98246.28
2022-10-06T07:48:39.540Z,98234.72
2022-10-06T07:51:13.382Z,98253.91
2022-10-06T07:53:40.071Z,98213.72
2022-10-06T07:56:07.449Z,98250.84
2022-10-06T07:58:34.193Z,98238.44
2022-10-06T08:01:11.600Z,98250.38
2022-10-06T08:03:38.499Z,98230.50
2022-10-06T08:06:05.257Z,98227.94
2022-10-06T08:08:33.171Z,98232.47
2022-10-06T08:11:01.634Z,98249.53
2022-10-06T08:13:28.460Z,98253.50
2022-10-06T08:15:55.126Z,98225.84
2022-10-06T08:18:44.507Z,98250.63
2022-10-06T08:21:18.873Z,98255.69
2022-10-06T08:23:49.901Z,98275.63
2022-10-06T08:26:17.788Z,98252.38
2022-10-06T08:28:54.386Z,98251.72
2022-10-06T08:31:21.887Z,98251.84
2022-10-06T08:33:48.687Z,98256.19
2022-10-06T08:36:17.115Z,98262.91
2022-10-06T08:38:43.697Z,98258.19
2022-10-06T08:41:20.047Z,98282.09
2022-10-06T08:43:49.381Z,98276.31
2022-10-06T08:46:17.807Z,98255.81
2022-10-06T08:48:46.481Z,98277.53
2022-10-06T08:51:30.137Z,98285.56
2022-10-06T08:54:14.875Z,98264.44
2022-10-06T08:56:53.498Z,98281.81
2022-10-06T08:59:20.139Z,98310.13
2022-10-06T09:01:47.802Z,98271.72
2022-10-06T09:04:24.340Z,98294.31
2022-10-06T09:06:56.574Z,98272.97
2022-10-06T09:09:44.794Z,98281.66
2022-10-06T09:12:20.437Z,98276.66
2022-10-06T09:14:48.211Z,98291.50
2022-10-06T09:17:34.093Z,98273.13
2022-10-06T09:20:05.742Z,98276.13
2022-10-06T09:22:32.342Z,98284.25
2022-10-06T09:25:20.853Z,98280.38
2022-10-06T09:27:49.790Z,98291.00
2022-10-06T09:30:17.474Z,98275.75
2022-10-06T09:32:46.078Z,98295.84
2022-10-06T09:35:22.602Z,98295.13
2022-10-06T09:37:57.992Z,98295.22
2022-10-06T09:40:34.525Z,98272.19
2022-10-06T09:43:01.416Z,98290.56
2022-10-06T09:45:28.037Z,98303.03
2022-10-06T09:47:54.936Z,98333.81
2022-10-06T09:50:26.067Z,98293.38
2022-10-06T09:52:58.746Z,98297.56
2022-10-06T09:55:25.802Z,98292.63
2022-10-06T09:57:53.264Z,98299.88
2022-10-06T10:00:47.429Z,98313.44
2022-10-06T10:03:14.175Z,98293.19
2022-10-06T10:05:48.605Z,98293.25
2022-10-06T10:08:24.975Z,98272.78
2022-10-06T10:11:11.682Z,98301.03
2022-10-06T10:13:42.672Z,98310.91
2022-10-06T10:16:09.394Z,98306.97
2022-10-06T10:18:36.231Z,98298.53
2022-10-06T10:21:03.968Z,98307.63
2022-10-06T10:23:32.333Z,98295.56
2022-10-06T10:26:01.772Z,98284.72
2022-10-06T10:28:58.575Z,98293.25
2022-10-06T10:32:02.290Z,98275.28
2022-10-06T10:34:52.443Z,98307.34
2022-10-06T10:37:31.042Z,98281.09
2022-10-06T10:39:57.612Z,98293.28
2022-10-06T10:42:31.529Z,98273.81
2022-10-06T10:45:02.306Z,98319.16
2022-10-06T10:47:31.519Z,98293.25
2022-10-06T10:50:18.563Z,98302.34
2022-10-06T10:52:46.667Z,98304.13
2022-10-06T10:55:17.977Z,98297.78
2022-10-06T10:57:44.700Z,98289.78
2022-10-06T11:00:19.641Z,98307.47
2022-10-06T11:02:46.630Z,98304.69
2022-10-06T11:05:26.735Z,98285.66
2022-10-06T11:08:33.957Z,98304.06
2022-10-06T11:11:01.880Z,98292.94
2022-10-06T11:13:37.351Z,98312.56
2022-10-06T11:16:22.417Z,98292.91
2022-10-06T11:19:13.815Z,98296.16
2022-10-06T11:21:55.981Z,98305.19
2022-10-06T11:24:31.113Z,98264.94
2022-10-06T11:27:22.536Z,98294.34
2022-10-06T11:29:58.167Z,98310.06
2022-10-06T11:33:03.120Z,98282.59
2022-10-06T11:35:34.335Z,98324.88
2022-10-06T11:38:45.477Z,98331.06
2022-10-06T11:41:23.659Z,98277.78
2022-10-06T11:44:10.766Z,98267.28
2022-10-06T11:46:46.175Z,98284.69
2022-10-06T11:49:31.148Z,98286.13
2022-10-06T11:52:08.208Z,98283.53
2022-10-06T11:54:47.966Z,98279.00
2022-10-06T11:57:30.303Z,98303.66
2022-10-06T12:00:05.699Z,98302.81
2022-10-06T12:02:32.285Z,98285.41
2022-10-06T12:05:55.313Z,98275.25
2022-10-06T12:08:00.494Z,98274.47
2022-10-06T12:10:29.930Z,98281.56
2022-10-06T12:14:01.225Z,98302.88
2022-10-06T12:19:26.164Z,98275.16
2022-10-06T12:22:15.802Z,98261.97
2022-10-06T12:25:14.608Z,98287.38
2022-10-06T12:28:20.163Z,98261.09
2022-10-06T12:31:25.094Z,98278.16
2022-10-06T12:33:51.746Z,98276.53
2022-10-06T12:36:20.371Z,98257.19
2022-10-06T12:39:02.084Z,98258.72
2022-10-06T12:42:05.987Z,98268.00
2022-10-06T12:44:35.427Z,98245.53
2022-10-06T12:47:03.670Z,98239.09
2022-10-06T12:49:50.929Z,98257.47
2022-10-06T12:52:34.292Z,98247.66
2022-10-06T12:55:28.056Z,98246.50
2022-10-06T12:57:54.642Z,98247.75
2022-10-06T13:00:31.558Z,98246.97
2022-10-06T13:02:58.177Z,98254.88
2022-10-06T13:05:24.824Z,98271.47
2022-10-06T13:07:59.229Z,98260.13
2022-10-06T13:10:26.408Z,98262.56
2022-10-06T13:12:53.003Z,98249.09
2022-10-06T13:15:29.564Z,98236.06
2022-10-06T13:18:14.996Z,98261.81
2022-10-06T13:20:53.286Z,98237.19
2022-10-06T13:23:33.075Z,98260.69
2022-10-06T13:26:00.827Z,98263.72
2022-10-06T13:28:31.071Z,98268.03
2022-10-06T13:30:59.519Z,98241.13
2022-10-06T13:33:29.106Z,98239.75
2022-10-06T13:35:55.771Z,98263.91
2022-10-06T13:38:22.415Z,98265.34
2022-10-06T13:41:13.816Z,98264.94
2022-10-06T13:43:43.327Z,98265.53
2022-10-06T13:46:10.882Z,98261.72
2022-10-06T13:48:37.780Z,98256.69
2022-10-06T13:51:04.704Z,98281.16
2022-10-06T13:53:31.984Z,98261.81
2022-10-06T13:55:58.701Z,98260.19
2022-10-06T13:58:26.501Z,98265.34
2022-10-06T14:00:57.565Z,98260.06
2022-10-06T14:03:28.767Z,98298.59
2022-10-06T14:06:15.444Z,98273.91
2022-10-06T14:08:42.017Z,98251.00
2022-10-06T14:11:08.677Z,98276.56
2022-10-06T14:13:51.502Z,98257.81
2022-10-06T14:16:20.125Z,98249.84
2022-10-06T14:18:59.727Z,98291.44
2022-10-06T14:24:24.225Z,98261.75
2022-10-06T14:26:50.903Z,98273.03
2022-10-06T14:29:17.722Z,98223.59
2022-10-06T14:31:44.914Z,98247.38
2022-10-06T14:34:18.144Z,98271.34
2022-10-06T14:36:47.064Z,98284.66
2022-10-06T14:39:14.465Z,98258.44
2022-10-06T14:41:41.034Z,98267.28
2022-10-06T14:44:08.453Z,98260.91
2022-10-06T14:46:35.412Z,98232.75
2022-10-06T14:49:06.464Z,98261.00
2022-10-06T14:51:36.590Z,98241.53
2022-10-06T14:54:03.744Z,98276.22
2022-10-06T14:56:31.613Z,98253.19
2022-10-06T14:59:02.625Z,98250.91
2022-10-06T15:01:29.288Z,98264.47
2022-10-06T15:03:59.498Z,98253.28
2022-10-06T15:06:26.313Z,98235.69
2022-10-06T15:08:53.673Z,98258.25
2022-10-06T15:11:20.708Z,98255.94
2022-10-06T15:13:47.444Z,98273.06
2022-10-06T15:16:17.467Z,98231.97
2022-10-06T15:18:44.347Z,98257.84
2022-10-06T15:21:11.013Z,98262.16
2022-10-06T15:23:38.138Z,98243.50
2022-10-06T15:26:04.874Z,98247.97
2022-10-06T15:28:31.535Z,98245.56
2022-10-06T15:30:58.361Z,98257.31
2022-10-06T15:33:25.182Z,98240.53
2022-10-06T15:36:14.704Z,98237.28
2022-10-06T15:38:41.337Z,98263.06
2022-10-06T15:41:08.053Z,98264.16
2022-10-06T15:43:34.794Z,98240.88
2022-10-06T15:46:01.593Z,98230.47
2022-10-06T15:48:28.238Z,98239.56
2022-10-06T15:50:54.869Z,98235.34
2022-10-06T15:53:21.509Z,98260.16
2022-10-06T15:55:48.172Z,98244.13
2022-10-06T15:58:14.847Z,98251.31
2022-10-06T16:00:41.522Z,98255.81
2022-10-06T16:03:08.165Z,98281.25
2022-10-06T16:05:34.885Z,98234.03
2022-10-06T16:08:01.558Z,98253.09
2022-10-06T16:10:29.774Z,98271.03
2022-10-06T16:12:56.477Z,98254.75
2022-10-06T16:15:23.188Z,98266.16
2022-10-06T16:17:49.892Z,98265.44
2022-10-06T16:20:16.561Z,98249.81
2022-10-06T16:22:43.511Z,98252.31
2022-10-06T16:25:10.102Z,98248.06
2022-10-06T16:27:36.682Z,98228.31
2022-10-06T16:30:03.484Z,98267.34
2022-10-06T16:32:30.541Z,98269.56
2022-10-06T16:34:57.234Z,98273.22
2022-10-06T16:37:24.293Z,98253.31
2022-10-06T16:39:50.890Z,98298.97
2022-10-06T16:42:17.593Z,98279.94
2022-10-06T16:44:44.272Z,98290.19
2022-10-06T16:47:11.002Z,98289.47
2022-10-06T16:49:37.691Z,98270.88
2022-10-06T16:52:04.482Z,98286.59
2022-10-06T16:54:31.183Z,98284.19
2022-10-06T16:56:57.795Z,98285.34
2022-10-06T16:59:24.397Z,98280.38
2022-10-06T17:01:50.978Z,98294.06
2022-10-06T17:04:22.254Z,98293.03
2022-10-06T17:06:50.524Z,98295.22
2022-10-06T17:09:21.369Z,98271.41
2022-10-06T17:11:52.208Z,98289.88
2022-10-06T17:14:19.136Z,98261.25
2022-10-06T17:16:46.421Z,98285.66
2022-10-06T17:19:13.781Z,98291.88
2022-10-06T17:21:46.312Z,98291.69
2022-10-06T17:24:13.814Z,98288.97
2022-10-06T17:26:41.721Z,98285.25
2022-10-06T17:29:12.326Z,98270.63
2022-10-06T17:31:40.502Z,98296.63
2022-10-06T17:34:08.945Z,98277.69
2022-10-06T17:36:35.647Z,98266.06
2022-10-06T17:39:02.573Z,98279.91
2022-10-06T17:41:33.484Z,98289.69
2022-10-06T17:44:01.935Z,98267.78
2022-10-06T17:46:28.695Z,98301.66
2022-10-06T17:48:55.506Z,98283.78
2022-10-06T17:51:26.168Z,98285.69
2022-10-06T17:53:53.601Z,98296.50
2022-10-06T17:56:22.563Z,98300.03
2022-10-06T17:58:56.297Z,98302.44
2022-10-06T18:01:24.632Z,98296.78
2022-10-06T18:03:52.575Z,98273.53
2022-10-06T18:06:19.194Z,98277.84
2022-10-06T18:08:45.950Z,98314.31
2022-10-06T18:11:14.014Z,98283.50
2022-10-06T18:13:40.712Z,98298.63
2022-10-06T18:16:20.730Z,98325.13
2022-10-06T18:18:48.499Z,98324.03
2022-10-06T18:21:15.156Z,98287.81
2022-10-06T18:23:41.801Z,98283.22
2022-10-06T18:26:08.679Z,98295.63
2022-10-06T18:28:35.471Z,98295.91
2022-10-06T18:31:02.188Z,98297.53
2022-10-06T18:36:15.677Z,98278.31
2022-10-06T18:38:44.328Z,98274.22
2022-10-06T18:41:13.197Z,98299.28
2022-10-06T18:43:39.778Z,98298.78
2022-10-06T18:46:06.513Z,98295.28
2022-10-06T18:48:33.196Z,98278.50
2022-10-06T18:51:00.900Z,98280.88
2022-10-06T18:53:27.605Z,98310.50
2022-10-06T18:55:54.246Z,98293.22
2022-10-06T18:58:20.825Z,98298.94
2022-10-06T19:00:47.396Z,98288.72
2022-10-06T19:03:14.068Z,98293.03
2022-10-06T19:05:48.207Z,98289.25
2022-10-06T19:08:14.756Z,98321.59
2022-10-06T19:10:41.343Z,98282.44
2022-10-06T19:13:07.936Z,98297.19
2022-10-06T19:15:34.568Z,98298.50
2022-10-06T19:18:01.184Z,98288.28
2022-10-06T19:20:27.759Z,98305.53
2022-10-06T19:22:54.329Z,98305.47
2022-10-06T19:25:21.003Z,98292.75
2022-10-06T19:27:47.525Z,98282.25
2022-10-06T19:30:14.140Z,98273.56
2022-10-06T19:32:40.734Z,98313.44
2022-10-06T19:35:10.289Z,98286.44
2022-10-06T19:37:37.511Z,98301.81
2022-10-06T19:40:04.403Z,98299.38
2022-10-06T19:42:31.326Z,98282.59
2022-10-06T19:44:57.951Z,98305.66
2022-10-06T19:47:24.532Z,98284.69
2022-10-06T19:49:52.190Z,98247.97
2022-10-06T19:52:20.448Z,98289.94
2022-10-06T19:54:47.088Z,98264.13
2022-10-06T19:57:13.705Z,98308.34
2022-10-06T19:59:40.345Z,98303.94
2022-10-06T20:02:07.209Z,98293.38
2022-10-06T20:04:33.876Z,98291.69
2022-10-06T20:07:00.528Z,98303.47
2022-10-06T20:09:27.418Z,98282.69
2022-10-06T20:11:54.148Z,98308.59
2022-10-06T20:14:22.500Z,98298.47
2022-10-06T20:16:50.483Z,98302.53
2022-10-06T20:19:17.916Z,98309.22
2022-10-06T20:21:44.509Z,98299.31
2022-10-06T20:24:18.529Z,98300.28
2022-10-06T20:26:45.529Z,98297.59
2022-10-06T20:29:12.761Z,98270.16
2022-10-06T20:31:41.095Z,98290.06
2022-10-06T20:34:08.621Z,98282.66
2022-10-06T20:36:35.763Z,98298.34
2022-10-06T20:39:02.415Z,98306.09
2022-10-06T20:41:29.094Z,98299.38
2022-10-06T20:43:56.900Z,98288.41
2022-10-06T20:46:24.979Z,98287.25
2022-10-06T20:48:51.595Z,98306.41
2022-10-06T20:51:18.321Z,98291.78
2022-10-06T20:53:45.100Z,98303.34
2022-10-06T20:56:11.687Z,98287.63
2022-10-06T20:58:38.295Z,98301.34
2022-10-06T21:01:11.375Z,98275.63
2022-10-06T21:03:43.348Z,98278.88
2022-10-06T21:06:10.725Z,98298.03
2022-10-06T21:08:37.452Z,98285.38
2022-10-06T21:11:04.293Z,98292.25
2022-10-06T21:13:31.085Z,98285.41
2022-10-06T21:15:58.542Z,98262.69
2022-10-06T21:18:25.354Z,98265.13
2022-10-06T21:20:59.129Z,98262.38
2022-10-06T21:23:26.814Z,98287.31
2022-10-06T21:25:53.988Z,98299.25
2022-10-06T21:28:21.010Z,98303.03
2022-10-06T21:30:47.725Z,98294.63
2022-10-06T21:33:14.614Z,98262.81
2022-10-06T21:35:41.344Z,98264.94
2022-10-06T21:38:11.159Z,98273.00
2022-10-06T21:40:37.904Z,98268.06
2022-10-06T21:43:05.008Z,98279.63
2022-10-06T21:45:33.123Z,98249.09
2022-10-06T21:48:01.186Z,98278.97
2022-10-06T21:50:27.915Z,98262.00
2022-10-06T21:52:54.736Z,98252.53
2022-10-06T21:55:21.441Z,98253.03
2022-10-06T21:57:48.146Z,98243.41
2022-10-06T22:00:15.075Z,98244.78
2022-10-06T22:02:41.868Z,98226.03
2022-10-06T22:05:08.787Z,98268.72
2022-10-06T22:07:35.629Z,98267.84
2022-10-06T22:10:02.356Z,98252.44
2022-10-06T22:12:29.264Z,98245.56
2022-10-06T22:14:56.000Z,98232.63
2022-10-06T22:17:23.279Z,98257.06
2022-10-06T22:19:50.380Z,98265.47
2022-10-06T22:22:17.016Z,98233.63
2022-10-06T22:24:43.739Z,98234.38
2022-10-06T22:27:10.444Z,98226.56
2022-10-06T22:29:37.188Z,98237.63
2022-10-06T22:32:03.953Z,98252.41
2022-10-06T22:34:30.688Z,98244.84
2022-10-06T22:36:57.429Z,98228.72
2022-10-06T22:39:24.155Z,98218.91
2022-10-06T22:41:50.912Z,98210.78
2022-10-06T22:44:18.180Z,98208.75
2022-10-06T22:46:45.029Z,98229.81
2022-10-06T22:49:11.891Z,98198.34
2022-10-06T22:51:38.613Z,98236.50
2022-10-06T22:54:05.325Z,98207.78
2022-10-06T22:56:32.767Z,98203.13
2022-10-06T22:59:00.075Z,98191.09
2022-10-06T23:01:28.333Z,98194.53
2022-10-06T23:03:55.383Z,98203.31
2022-10-06T23:06:22.676Z,98193.13
2022-10-06T23:08:49.397Z,98178.09
2022-10-06T23:11:17.953Z,98176.13
2022-10-06T23:13:44.664Z,98188.34
2022-10-06T23:16:15.423Z,98170.84
2022-10-06T23:18:42.676Z,98193.72
2022-10-06T23:21:13.836Z,98190.38
2022-10-06T23:23:40.614Z,98174.19
2022-10-06T23:26:09.149Z,98199.19
2022-10-06T23:28:35.907Z,98171.81
2022-10-06T23:31:04.246Z,98174.56
2022-10-06T23:33:31.212Z,98178.47
2022-10-06T23:36:01.956Z,98170.84
2022-10-06T23:38:28.656Z,98181.47
2022-10-06T23:40:55.485Z,98196.19
2022-10-06T23:43:22.559Z,98151.31
2022-10-06T23:45:49.338Z,98177.66
2022-10-06T23:48:16.309Z,98155.88
2022-10-06T23:50:43.168Z,98175.94
2022-10-06T23:53:09.924Z,98182.13
2022-10-06T23:55:36.655Z,98164.09
2022-10-06T23:58:03.457Z,98179.63
